Fairfield, TX

3:01 PM CDT on August 29, 2016 (GMT -0500)
Sam's Restaurant | | Change Station

Elev 474 ft 31.73 °N, 96.15 °W | Updated 16 seconds ago

Mostly Cloudy
Mostly Cloudy
88.5 °F
Feels Like 103 °F
N
0.0
Wind Variable Wind from West
Gusts 0.0 mph

Today
High -- | Low -- °F
--% Chance of Precip.
Yesterday
High -- | Low -- °F
Precip. -- in
Pressure 29.99 in
Visibility 10.0 miles
Clouds Scattered Clouds 3700 ft
Mostly Cloudy 4400 ft
Mostly Cloudy 5000 ft
Heat Index 103 °F
Dew Point 78 °F
Humidity 72%
Rainfall 0.00 in
Snow Depth Not available.
6:58 AM 7:51 PM
Waning Crescent, 7% visible
METAR KLXY 291955Z AUTO 04006KT 10SM SCT037 BKN044 BKN050 32/22 A2999 RMK AO2 LTG DSNT NW T03210222
Pressure 29.99 in
Visibility 10.0 miles
Clouds Scattered Clouds 3700 ft
Mostly Cloudy 4400 ft
Mostly Cloudy 5000 ft
Heat Index 103 °F
Dew Point 78 °F
Humidity 72%
Rainfall 0.00 in
Snow Depth Not available.
6:58 AM 7:51 PM
Waning Crescent, 7% visible
METAR KLXY 291955Z AUTO 04006KT 10SM SCT037 BKN044 BKN050 32/22 A2999 RMK AO2 LTG DSNT NW T03210222
Tropical Depression Nine was centered about 170 miles west-southwest of Key West, Florida, as of late Monday morning. The depression may struggle a bit in the southern Gulf of Mexico before finally making a Gulf Coast landfall later this week with soaking rain and gusty winds.

This latest system was designated a tropical depression Sunday after a Hurricane Hunter reconnaissance mission finally found a sufficiently organized low-pressure center with collocated shower and thunderstorm activity.

10-Day Weather Forecast

Almanac

Astronomy

Aug. 29, 2016 Rise Set
Actual Time
Civil Twilight
Nautical Twilight
Astronomical Twilight
Moon
Length of Visible Light
Length of Day
Tomorrow will be .
, % of the Moon is Illuminated

Today's Extremes

State Highs State Lows

Community

WunderPhotos

Upload Photos

1,935,647 photos uploaded!

WunderBlog® & News

Nearby

Air Quality

  Air Quality AQ Index Pollutant
Not available.

Snow Depth

Station Depth Elevation

Earthquake Activity

City Distance Mag. Time & Date
Minimum magnitude displayed is 2.5.

Coastal Water Temperatures

Place Temperature

Stations

Nearby Weather Stations

Station Location Temp. Windchill Dew Point Humidity Wind Precip. Elev Updated Type
                   

Watches & Warnings

There are currently no watches in effect.